createdAt,value
2017-11-16T00:01:21.445Z,16.67
2017-11-16T00:03:48.969Z,15.63
2017-11-16T00:06:17.218Z,15.77
2017-11-16T00:08:44.699Z,15.50
2017-11-16T00:11:12.218Z,14.23
2017-11-16T00:13:39.705Z,15.27
2017-11-16T00:16:07.214Z,14.97
2017-11-16T00:18:34.730Z,14.30
2017-11-16T00:21:02.267Z,13.60
2017-11-16T00:23:30.529Z,15.13
2017-11-16T00:25:58.052Z,13.90
2017-11-16T00:28:25.636Z,14.93
2017-11-16T00:30:53.160Z,15.23
2017-11-16T00:33:20.644Z,16.13
2017-11-16T00:35:48.922Z,16.30
2017-11-16T00:38:16.415Z,16.90
2017-11-16T00:40:44.681Z,15.40
2017-11-16T00:43:12.200Z,14.30
2017-11-16T00:45:39.703Z,15.80
2017-11-16T00:48:07.225Z,16.00
2017-11-16T00:50:34.720Z,15.30
2017-11-16T00:53:02.245Z,15.33
2017-11-16T00:55:31.369Z,15.00
2017-11-16T00:57:58.984Z,15.30
2017-11-16T01:00:26.466Z,14.90
2017-11-16T01:02:53.949Z,14.70
2017-11-16T01:05:21.473Z,14.73
2017-11-16T01:07:48.973Z,14.20
2017-11-16T01:10:16.952Z,13.43
2017-11-16T01:12:44.441Z,12.73
2017-11-16T01:15:11.961Z,14.60
2017-11-16T01:17:39.458Z,13.13
2017-11-16T01:20:06.973Z,15.40
2017-11-16T01:22:35.303Z,15.20
2017-11-16T01:25:02.790Z,14.53
2017-11-16T01:27:30.308Z,13.93
2017-11-16T01:29:58.680Z,13.33
2017-11-16T01:32:26.232Z,14.17
2017-11-16T01:34:53.725Z,14.57
2017-11-16T01:37:21.305Z,13.73
2017-11-16T01:39:49.564Z,15.17
2017-11-16T01:42:17.058Z,14.40
2017-11-16T01:44:44.577Z,13.80
2017-11-16T01:47:12.069Z,14.60
2017-11-16T01:49:39.577Z,13.70
2017-11-16T01:52:07.068Z,15.13
2017-11-16T01:54:35.321Z,12.80
2017-11-16T01:57:02.836Z,12.03
2017-11-16T01:59:30.337Z,15.67
2017-11-16T02:01:57.856Z,14.97
2017-11-16T02:04:26.143Z,13.17
2017-11-16T02:06:54.401Z,14.17
2017-11-16T02:09:21.908Z,14.17
2017-11-16T02:11:50.202Z,13.97
2017-11-16T02:14:18.476Z,14.30
2017-11-16T02:16:46.760Z,12.90
2017-11-16T02:19:14.290Z,13.77
2017-11-16T02:21:41.785Z,13.87
2017-11-16T02:24:09.324Z,13.37
2017-11-16T02:26:36.842Z,12.90
2017-11-16T02:29:04.332Z,14.30
2017-11-16T02:31:32.610Z,13.77
2017-11-16T02:34:00.101Z,12.70
2017-11-16T02:36:28.400Z,12.10
2017-11-16T02:38:55.895Z,13.20
2017-11-16T02:41:23.402Z,13.53
2017-11-16T02:43:50.912Z,10.40
2017-11-16T02:46:18.464Z,9.87
2017-11-16T02:48:46.712Z,11.40
2017-11-16T02:51:14.228Z,10.00
2017-11-16T02:53:42.505Z,11.13
2017-11-16T02:56:09.995Z,9.70
2017-11-16T02:58:37.517Z,8.70
2017-11-16T03:01:05.031Z,8.50
2017-11-16T03:03:32.516Z,9.77
2017-11-16T03:06:00.029Z,7.97
2017-11-16T03:08:27.522Z,9.63
2017-11-16T03:10:55.038Z,7.80
2017-11-16T03:13:22.529Z,8.83
2017-11-16T03:15:50.030Z,7.67
2017-11-16T03:18:17.515Z,8.70
2017-11-16T03:20:45.817Z,9.60
2017-11-16T03:23:14.069Z,8.77
2017-11-16T03:25:41.589Z,7.27
2017-11-16T03:28:09.079Z,7.60
2017-11-16T03:30:36.561Z,7.80
2017-11-16T03:33:04.072Z,7.97
2017-11-16T03:35:31.578Z,7.90
2017-11-16T03:37:59.092Z,7.60
2017-11-16T03:40:26.576Z,8.27
2017-11-16T03:42:54.097Z,7.57
2017-11-16T03:45:21.591Z,7.30
2017-11-16T03:47:49.117Z,9.43
2017-11-16T03:50:17.003Z,7.37
2017-11-16T03:52:44.518Z,10.17
2017-11-16T03:55:12.033Z,8.77
2017-11-16T03:57:39.520Z,8.93
2017-11-16T04:00:07.030Z,9.73
2017-11-16T04:02:34.533Z,8.67
2017-11-16T04:05:02.057Z,8.90
2017-11-16T04:07:29.545Z,7.90
2017-11-16T04:09:57.053Z,7.37
2017-11-16T04:12:25.316Z,7.60
2017-11-16T04:14:52.821Z,8.60
2017-11-16T04:17:21.068Z,8.67
2017-11-16T04:19:48.612Z,8.10
2017-11-16T04:22:16.109Z,9.40
2017-11-16T04:24:43.592Z,10.07
2017-11-16T04:27:11.109Z,8.77
2017-11-16T04:29:38.597Z,8.73
2017-11-16T04:32:06.101Z,11.20
2017-11-16T04:34:33.588Z,9.93
2017-11-16T04:37:01.874Z,8.90
2017-11-16T04:39:29.386Z,10.03
2017-11-16T04:41:56.869Z,8.83
2017-11-16T04:44:24.379Z,10.50
2017-11-16T04:46:51.874Z,11.23
2017-11-16T04:49:19.393Z,8.47
2017-11-16T04:51:46.902Z,11.03
2017-11-16T04:54:15.353Z,9.93
2017-11-16T04:56:42.853Z,10.13
2017-11-16T04:59:10.395Z,9.00
2017-11-16T05:01:37.886Z,9.90
2017-11-16T05:04:05.377Z,9.97
2017-11-16T05:06:33.681Z,9.47
2017-11-16T05:09:01.934Z,10.27
2017-11-16T05:11:29.453Z,9.17
2017-11-16T05:13:56.975Z,9.47
2017-11-16T05:16:24.456Z,9.20
2017-11-16T05:18:51.956Z,10.40
2017-11-16T05:21:20.229Z,9.10
2017-11-16T05:23:48.521Z,10.00
2017-11-16T05:26:16.814Z,10.60
2017-11-16T05:28:45.056Z,9.20
2017-11-16T05:31:12.583Z,10.60
2017-11-16T05:33:40.150Z,9.87
2017-11-16T05:36:08.437Z,11.50
2017-11-16T05:38:35.951Z,9.50
2017-11-16T05:41:03.477Z,10.03
2017-11-16T05:43:31.774Z,12.53
2017-11-16T05:46:00.033Z,10.97
2017-11-16T05:48:27.592Z,9.73
2017-11-16T05:50:55.114Z,9.97
2017-11-16T05:53:22.623Z,8.70
2017-11-16T05:55:50.110Z,8.93
2017-11-16T05:58:17.636Z,9.80
2017-11-16T06:00:45.124Z,10.10
2017-11-16T06:03:12.852Z,12.60
2017-11-16T06:05:40.429Z,17.07
2017-11-16T06:08:08.691Z,11.40
2017-11-16T06:10:36.210Z,11.30
2017-11-16T06:13:03.724Z,9.60
2017-11-16T06:15:31.241Z,8.93
2017-11-16T06:17:59.499Z,9.83
2017-11-16T06:20:27.013Z,10.20
2017-11-16T06:22:54.518Z,11.80
2017-11-16T06:25:22.065Z,10.10
2017-11-16T06:27:49.597Z,10.50
2017-11-16T06:30:17.835Z,10.67
2017-11-16T06:32:45.323Z,10.33
2017-11-16T06:35:12.820Z,10.50
2017-11-16T06:37:40.329Z,9.90
2017-11-16T06:40:07.828Z,11.83
2017-11-16T06:42:35.317Z,10.67
2017-11-16T06:45:02.849Z,10.50
2017-11-16T06:47:30.383Z,11.27
2017-11-16T06:49:57.869Z,11.73
2017-11-16T06:52:25.405Z,10.20
2017-11-16T06:54:52.937Z,11.17
2017-11-16T06:57:20.450Z,12.13
2017-11-16T06:59:47.942Z,11.70
2017-11-16T07:02:16.219Z,11.73
2017-11-16T07:04:44.479Z,10.20
2017-11-16T07:07:11.986Z,9.40
2017-11-16T07:09:39.490Z,11.47
2017-11-16T07:12:07.965Z,12.20
2017-11-16T07:14:35.470Z,10.37
2017-11-16T07:17:02.989Z,9.70
2017-11-16T07:19:30.511Z,11.83
2017-11-16T07:21:58.020Z,9.80
2017-11-16T07:24:25.545Z,10.70
2017-11-16T07:26:53.043Z,11.23
2017-11-16T07:29:20.568Z,12.80
2017-11-16T07:31:48.077Z,11.50
2017-11-16T07:34:15.569Z,11.77
2017-11-16T07:36:43.086Z,11.50
2017-11-16T07:39:10.583Z,9.80
2017-11-16T07:41:38.103Z,9.77
2017-11-16T07:44:06.363Z,12.80
2017-11-16T07:46:33.878Z,10.60
2017-11-16T07:49:01.397Z,10.13
2017-11-16T07:51:28.953Z,11.00
2017-11-16T07:53:56.461Z,11.33
2017-11-16T07:56:24.751Z,9.93
2017-11-16T07:58:52.269Z,10.60
2017-11-16T08:01:19.763Z,12.10
2017-11-16T08:03:47.297Z,11.80
2017-11-16T08:06:14.829Z,11.67
2017-11-16T08:08:42.356Z,11.00
2017-11-16T08:11:09.858Z,12.00
2017-11-16T08:13:37.371Z,11.50
2017-11-16T08:16:05.671Z,10.10
2017-11-16T08:18:33.163Z,11.10
2017-11-16T08:21:00.704Z,11.57
2017-11-16T08:23:28.962Z,10.57
2017-11-16T08:25:56.481Z,12.00
2017-11-16T08:28:23.979Z,11.87
2017-11-16T08:30:51.497Z,11.30
2017-11-16T08:33:18.989Z,10.17
2017-11-16T08:35:46.513Z,10.73
2017-11-16T08:38:14.046Z,9.90
2017-11-16T08:40:41.546Z,10.80
2017-11-16T08:43:09.110Z,10.60
2017-11-16T08:45:36.630Z,10.53
2017-11-16T08:48:04.133Z,9.87
2017-11-16T08:50:31.662Z,10.67
2017-11-16T08:52:59.957Z,9.60
2017-11-16T08:55:27.464Z,10.20
2017-11-16T08:57:54.980Z,9.13
2017-11-16T09:00:22.475Z,8.60
2017-11-16T09:02:50.757Z,9.93
2017-11-16T09:05:19.005Z,9.80
2017-11-16T09:07:46.535Z,9.80
2017-11-16T09:10:14.033Z,8.23
2017-11-16T09:12:41.537Z,9.00
2017-11-16T09:15:09.018Z,8.83
2017-11-16T09:17:36.541Z,9.50
2017-11-16T09:20:04.053Z,10.27
2017-11-16T09:22:31.597Z,10.37
2017-11-16T09:24:59.085Z,8.67
2017-11-16T09:27:26.608Z,8.77
2017-11-16T09:29:54.127Z,9.37
2017-11-16T09:32:21.595Z,9.00
2017-11-16T09:34:49.116Z,8.80
2017-11-16T09:37:16.617Z,7.93
2017-11-16T09:39:44.137Z,9.03
2017-11-16T09:42:11.621Z,12.40
2017-11-16T09:44:39.281Z,9.07
2017-11-16T09:47:07.542Z,8.80
2017-11-16T09:49:35.061Z,9.53
2017-11-16T09:52:02.566Z,7.40
2017-11-16T09:54:30.079Z,8.97
2017-11-16T09:56:58.340Z,9.10
2017-11-16T09:59:25.875Z,8.70
2017-11-16T10:01:53.365Z,8.20
2017-11-16T10:04:20.862Z,7.20
2017-11-16T10:06:48.379Z,7.90
2017-11-16T10:09:15.869Z,7.83
2017-11-16T10:11:43.380Z,7.00
2017-11-16T10:14:10.889Z,7.00
2017-11-16T10:16:38.415Z,6.80
2017-11-16T10:19:05.937Z,6.80
2017-11-16T10:21:33.426Z,7.37
2017-11-16T10:24:01.705Z,6.97
2017-11-16T10:26:29.235Z,6.00
2017-11-16T10:28:56.723Z,6.03
2017-11-16T10:31:24.222Z,5.53
2017-11-16T10:33:51.728Z,5.00
2017-11-16T10:36:19.250Z,4.90
2017-11-16T10:38:46.736Z,5.27
2017-11-16T10:41:14.234Z,5.63
2017-11-16T10:43:41.757Z,5.00
2017-11-16T10:46:09.254Z,7.50
2017-11-16T10:48:36.808Z,4.80
2017-11-16T10:51:04.300Z,5.23
2017-11-16T10:53:31.822Z,6.13
2017-11-16T10:56:00.077Z,5.20
2017-11-16T10:58:27.582Z,5.77
2017-11-16T11:00:55.084Z,6.40
2017-11-16T11:03:22.606Z,5.57
2017-11-16T11:05:50.094Z,5.70
2017-11-16T11:08:18.382Z,4.33
2017-11-16T11:10:46.637Z,5.77
2017-11-16T11:13:14.134Z,5.10
2017-11-16T11:15:41.651Z,5.07
2017-11-16T11:18:09.158Z,4.67
2017-11-16T11:20:36.685Z,6.37
2017-11-16T11:23:04.197Z,4.57
2017-11-16T11:25:31.725Z,5.10
2017-11-16T11:27:59.213Z,6.20
2017-11-16T11:30:26.715Z,6.13
2017-11-16T11:32:54.226Z,4.90
2017-11-16T11:35:21.742Z,5.20
2017-11-16T11:37:49.271Z,4.63
2017-11-16T11:40:17.241Z,6.37
2017-11-16T11:42:44.755Z,4.13
2017-11-16T11:45:12.236Z,4.80
2017-11-16T11:47:39.755Z,5.00
2017-11-16T11:50:08.042Z,4.70
2017-11-16T11:52:36.297Z,4.43
2017-11-16T11:55:03.821Z,4.03
2017-11-16T11:57:31.362Z,4.80
2017-11-16T11:59:59.632Z,5.30
2017-11-16T12:02:27.119Z,4.77
2017-11-16T12:04:55.418Z,3.90
2017-11-16T12:07:22.915Z,4.30
2017-11-16T12:09:50.435Z,4.30
2017-11-16T12:12:17.929Z,3.97
2017-11-16T12:14:46.185Z,4.53
2017-11-16T12:17:13.703Z,3.40
2017-11-16T12:19:41.197Z,3.83
2017-11-16T12:22:08.723Z,4.87
2017-11-16T12:24:36.218Z,3.23
2017-11-16T12:27:03.797Z,4.97
2017-11-16T12:29:31.287Z,4.93
2017-11-16T12:31:58.810Z,3.97
2017-11-16T12:34:27.059Z,3.67
2017-11-16T12:36:54.595Z,4.47
2017-11-16T12:39:22.097Z,3.77
2017-11-16T12:41:50.345Z,3.83
2017-11-16T12:44:17.872Z,4.10
2017-11-16T12:46:45.364Z,3.90
2017-11-16T12:49:12.881Z,4.13
2017-11-16T12:51:40.409Z,5.70
2017-11-16T12:54:08.695Z,4.53
2017-11-16T12:56:36.253Z,3.73
2017-11-16T12:59:03.770Z,3.70
2017-11-16T13:01:31.274Z,4.63
2017-11-16T13:03:58.798Z,4.40
2017-11-16T13:06:26.294Z,4.60
2017-11-16T13:08:53.804Z,9.10
2017-11-16T13:11:21.297Z,5.00
2017-11-16T13:13:49.577Z,5.17
2017-11-16T13:16:17.073Z,4.47
2017-11-16T13:18:44.572Z,3.70
2017-11-16T13:21:12.094Z,3.70
2017-11-16T13:23:40.365Z,3.90
2017-11-16T13:26:07.883Z,4.90
2017-11-16T13:28:35.386Z,4.57
2017-11-16T13:31:02.893Z,4.33
2017-11-16T13:33:30.412Z,3.97
2017-11-16T13:35:57.927Z,3.60
2017-11-16T13:38:25.413Z,3.70
2017-11-16T13:40:53.698Z,3.73
2017-11-16T13:43:21.189Z,4.30
2017-11-16T13:45:48.686Z,4.40
2017-11-16T13:48:16.201Z,3.80
2017-11-16T13:50:43.694Z,3.83
2017-11-16T13:53:11.969Z,3.90
2017-11-16T13:55:39.457Z,3.77
2017-11-16T13:58:07.733Z,4.50
2017-11-16T14:00:36.020Z,5.33
2017-11-16T14:03:03.527Z,4.70
2017-11-16T14:05:31.057Z,4.80
2017-11-16T14:07:58.554Z,4.37
2017-11-16T14:10:26.038Z,4.30
2017-11-16T14:12:53.557Z,5.03
2017-11-16T14:15:21.046Z,3.90
2017-11-16T14:17:49.322Z,4.00
2017-11-16T14:20:17.411Z,3.70
2017-11-16T14:22:44.917Z,3.30
2017-11-16T14:25:12.410Z,3.70
2017-11-16T14:27:39.921Z,3.10
2017-11-16T14:30:07.418Z,3.23
2017-11-16T14:32:35.702Z,3.27
2017-11-16T14:35:03.190Z,3.37
2017-11-16T14:37:30.681Z,3.10
2017-11-16T14:39:58.201Z,3.67
2017-11-16T14:42:25.685Z,3.57
2017-11-16T14:44:53.977Z,3.77
2017-11-16T14:47:21.486Z,4.37
2017-11-16T14:49:48.997Z,3.80
2017-11-16T14:52:16.526Z,4.60
2017-11-16T14:54:44.049Z,4.43
2017-11-16T14:57:12.316Z,4.20
2017-11-16T14:59:39.814Z,3.20
2017-11-16T15:02:08.102Z,4.60
2017-11-16T15:04:36.366Z,4.50
2017-11-16T15:07:03.853Z,4.20
2017-11-16T15:09:32.141Z,4.67
2017-11-16T15:12:00.406Z,4.30
2017-11-16T15:14:27.910Z,5.30
2017-11-16T15:16:55.441Z,6.10
2017-11-16T15:19:22.925Z,3.77
2017-11-16T15:21:50.432Z,4.00
2017-11-16T15:24:18.682Z,5.90
2017-11-16T15:26:46.202Z,5.13
2017-11-16T15:29:13.735Z,5.93
2017-11-16T15:31:41.243Z,6.10
2017-11-16T15:34:08.761Z,5.73
2017-11-16T15:36:36.254Z,6.10
2017-11-16T15:39:03.781Z,7.23
2017-11-16T15:41:31.274Z,6.40
2017-11-16T15:43:58.798Z,7.20
2017-11-16T15:46:26.301Z,6.40
2017-11-16T15:48:53.822Z,6.30
2017-11-16T15:51:22.114Z,5.97
2017-11-16T15:53:50.371Z,7.60
2017-11-16T15:56:17.893Z,6.53
2017-11-16T15:58:45.384Z,6.33
2017-11-16T16:01:14.864Z,8.10
2017-11-16T16:03:42.507Z,7.20
2017-11-16T16:06:10.003Z,6.60
2017-11-16T16:08:40.157Z,7.70
2017-11-16T16:11:07.749Z,12.13
2017-11-16T16:13:35.269Z,11.97
2017-11-16T16:16:03.783Z,14.07
2017-11-16T16:18:32.177Z,9.03
2017-11-16T16:20:59.677Z,11.17
2017-11-16T16:23:27.201Z,11.23
2017-11-16T16:25:55.458Z,15.40
2017-11-16T16:28:23.108Z,12.83
2017-11-16T16:30:50.630Z,48.70
2017-11-16T16:33:21.341Z,23.37
2017-11-16T16:35:49.086Z,11.23
2017-11-16T16:38:16.642Z,8.70
2017-11-16T16:40:44.170Z,8.47
2017-11-16T16:43:11.657Z,9.70
2017-11-16T16:45:39.183Z,9.33
2017-11-16T16:48:06.685Z,8.80
2017-11-16T16:50:34.940Z,8.00
2017-11-16T16:53:02.459Z,8.50
2017-11-16T16:55:29.949Z,7.30
2017-11-16T16:57:58.225Z,8.20
2017-11-16T17:00:25.721Z,7.27
2017-11-16T17:02:53.232Z,7.50
2017-11-16T17:05:21.002Z,7.03
2017-11-16T17:07:48.502Z,7.83
2017-11-16T17:10:15.993Z,10.07
2017-11-16T17:12:43.485Z,6.83
2017-11-16T17:15:10.972Z,8.43
2017-11-16T17:17:38.516Z,7.27
2017-11-16T17:20:06.765Z,8.60
2017-11-16T17:22:34.341Z,7.23
2017-11-16T17:25:01.847Z,8.83
2017-11-16T17:27:30.101Z,8.90
2017-11-16T17:29:57.609Z,8.27
2017-11-16T17:32:25.110Z,9.63
2017-11-16T17:34:52.600Z,8.03
2017-11-16T17:37:20.890Z,9.23
2017-11-16T17:39:48.383Z,8.77
2017-11-16T17:42:15.897Z,7.80
2017-11-16T17:44:43.406Z,7.60
2017-11-16T17:47:10.899Z,9.03
2017-11-16T17:49:38.405Z,8.07
2017-11-16T17:52:05.951Z,7.97
2017-11-16T17:54:34.229Z,8.67
2017-11-16T17:57:01.719Z,8.50
2017-11-16T17:59:29.973Z,8.17
2017-11-16T18:01:57.474Z,9.10
2017-11-16T18:04:25.730Z,8.87
2017-11-16T18:06:53.349Z,9.20
2017-11-16T18:09:20.849Z,8.27
2017-11-16T18:11:48.329Z,8.63
2017-11-16T18:14:15.847Z,8.07
2017-11-16T18:16:44.096Z,7.00
2017-11-16T18:19:11.584Z,6.70
2017-11-16T18:21:39.076Z,8.00
2017-11-16T18:24:07.346Z,7.70
2017-11-16T18:26:34.845Z,9.33
2017-11-16T18:29:03.236Z,9.17
2017-11-16T18:31:31.504Z,8.10
2017-11-16T18:33:58.993Z,8.37
2017-11-16T18:36:27.254Z,9.10
2017-11-16T18:38:54.747Z,8.13
2017-11-16T18:41:23.774Z,8.57
2017-11-16T18:43:51.257Z,8.57
2017-11-16T18:46:18.750Z,10.07
2017-11-16T18:48:46.254Z,14.13
2017-11-16T18:51:13.742Z,10.33
2017-11-16T18:53:42.146Z,12.93
2017-11-16T18:56:09.638Z,11.37
2017-11-16T18:58:37.126Z,8.90
2017-11-16T19:01:04.663Z,10.37
2017-11-16T19:03:32.147Z,9.73
2017-11-16T19:05:59.639Z,9.93
2017-11-16T19:08:27.146Z,9.20
2017-11-16T19:10:55.401Z,10.70
2017-11-16T19:13:22.898Z,9.50
2017-11-16T19:15:50.418Z,11.20
2017-11-16T19:18:17.918Z,11.10
2017-11-16T19:20:45.409Z,11.50
2017-11-16T19:23:12.930Z,10.53
2017-11-16T19:25:40.418Z,10.93
2017-11-16T19:28:07.914Z,11.17
2017-11-16T19:30:35.469Z,12.60
2017-11-16T19:33:02.967Z,13.37
2017-11-16T19:35:30.456Z,11.50
2017-11-16T19:37:58.853Z,10.97
2017-11-16T19:40:27.098Z,12.47
2017-11-16T19:42:54.581Z,12.10
2017-11-16T19:45:22.113Z,13.83
2017-11-16T19:47:49.609Z,14.50
2017-11-16T19:50:17.718Z,13.93
2017-11-16T19:52:46.088Z,14.20
2017-11-16T19:55:13.857Z,14.97
2017-11-16T19:57:41.356Z,14.90
2017-11-16T20:00:09.753Z,16.13
2017-11-16T20:02:38.010Z,16.57
2017-11-16T20:05:05.493Z,16.80
2017-11-16T20:07:33.011Z,16.43
2017-11-16T20:10:00.507Z,16.87
2017-11-16T20:12:28.013Z,16.43
2017-11-16T20:14:55.611Z,17.93
2017-11-16T20:17:23.108Z,19.43
2017-11-16T20:19:50.605Z,18.63
2017-11-16T20:22:18.134Z,19.50
2017-11-16T20:24:45.629Z,19.60
2017-11-16T20:27:13.197Z,16.97
2017-11-16T20:29:40.730Z,20.30
2017-11-16T20:32:08.997Z,18.97
2017-11-16T20:34:36.485Z,19.07
2017-11-16T20:37:20.593Z,18.90
2017-11-16T20:39:50.802Z,18.23
2017-11-16T20:42:39.134Z,19.17
2017-11-16T20:45:08.881Z,18.70
2017-11-16T20:47:45.080Z,19.37
2017-11-16T20:53:41.836Z,17.33
2017-11-16T20:56:10.093Z,18.43
2017-11-16T20:58:37.589Z,17.30
2017-11-16T21:01:05.212Z,19.10
2017-11-16T21:03:32.713Z,19.17
2017-11-16T21:06:00.211Z,20.67
2017-11-16T21:08:28.518Z,20.93
2017-11-16T21:10:56.008Z,22.10
2017-11-16T21:13:23.494Z,20.50
2017-11-16T21:15:51.018Z,22.17
2017-11-16T21:18:18.505Z,19.57
2017-11-16T21:20:46.013Z,21.13
2017-11-16T21:23:13.559Z,20.73
2017-11-16T21:25:41.055Z,21.53
2017-11-16T21:28:09.338Z,22.67
2017-11-16T21:30:36.882Z,24.90
2017-11-16T21:33:04.376Z,22.30
2017-11-16T21:35:31.886Z,25.60
2017-11-16T21:38:00.202Z,24.77
2017-11-16T21:40:27.705Z,26.63
2017-11-16T21:42:55.207Z,24.67
2017-11-16T21:45:22.741Z,24.07
2017-11-16T21:47:50.242Z,25.13
2017-11-16T21:50:17.757Z,25.70
2017-11-16T21:52:45.313Z,26.83
2017-11-16T21:55:12.824Z,26.27
2017-11-16T21:57:40.385Z,25.50
2017-11-16T22:00:07.962Z,24.03
2017-11-16T22:02:35.457Z,27.13
2017-11-16T22:05:02.950Z,25.27
2017-11-16T22:07:30.478Z,26.13
2017-11-16T22:09:57.969Z,29.20
2017-11-16T22:12:25.521Z,27.60
2017-11-16T22:14:53.882Z,27.47
2017-11-16T22:17:21.385Z,28.43
2017-11-16T22:19:48.878Z,28.40
2017-11-16T22:22:16.477Z,26.80
2017-11-16T22:24:43.982Z,28.50
2017-11-16T22:27:11.469Z,29.33
2017-11-16T22:29:39.028Z,28.53
2017-11-16T22:32:06.520Z,29.33
2017-11-16T22:34:34.823Z,30.40
2017-11-16T22:37:02.373Z,28.43
2017-11-16T22:39:29.865Z,31.13
2017-11-16T22:41:57.350Z,28.83
2017-11-16T22:44:24.881Z,27.20
2017-11-16T22:46:52.379Z,29.47
2017-11-16T22:49:19.889Z,28.60
2017-11-16T22:51:47.449Z,30.73
2017-11-16T22:54:15.719Z,30.60
2017-11-16T22:56:43.217Z,29.70
2017-11-16T22:59:11.488Z,31.00
2017-11-16T23:01:39.006Z,30.93
2017-11-16T23:04:06.505Z,31.20
2017-11-16T23:06:34.035Z,31.10
2017-11-16T23:09:01.575Z,29.90
2017-11-16T23:11:29.076Z,31.37
2017-11-16T23:13:56.600Z,33.53
2017-11-16T23:16:24.166Z,30.77
2017-11-16T23:18:51.660Z,29.60
2017-11-16T23:21:19.173Z,32.87
2017-11-16T23:23:46.718Z,32.13
2017-11-16T23:26:14.984Z,34.20
2017-11-16T23:28:42.600Z,31.57
2017-11-16T23:31:10.162Z,32.87
2017-11-16T23:33:37.658Z,31.07
2017-11-16T23:36:05.165Z,29.47
2017-11-16T23:38:32.684Z,30.87
2017-11-16T23:41:00.172Z,30.73
2017-11-16T23:43:27.787Z,31.77
2017-11-16T23:45:55.294Z,33.27
2017-11-16T23:48:22.799Z,27.83
2017-11-16T23:50:50.308Z,30.57
2017-11-16T23:53:17.803Z,31.17
2017-11-16T23:55:45.306Z,33.77
2017-11-16T23:58:12.813Z,30.07
